Terminal Aerodrome Forecast
Issued by NWS Charleston, WV

Current Version | Previous Version | Graphics & Text | Print | Product List | Glossary On
Versions: 1 2 3 4 5 6 7 8 9 10 11 12 13 14 15 16 17 18 19 20 21 22 23
616
FTUS41 KRLX 041720
TAFHTS
TAF
KHTS 041720Z 0418/0518 VRB04KT P6SM OVC030
     FM050100 30005KT P6SM SCT030
     FM050700 VRB03KT P6SM SCT250=

USA.gov is the U.S. government's official web portal to all federal, state and local government web resources and services.